createdAt,value
2022-12-09T00:00:05.775Z,8.92
2022-12-09T00:05:08.381Z,8.67
2022-12-09T00:10:10.128Z,8.96
2022-12-09T00:15:11.804Z,9.05
2022-12-09T00:20:13.455Z,9.17
2022-12-09T00:25:14.910Z,9.17
2022-12-09T00:30:16.572Z,9.43
2022-12-09T00:35:18.046Z,9.31
2022-12-09T00:40:19.753Z,9.34
2022-12-09T00:45:21.218Z,9.67
2022-12-09T00:50:22.673Z,9.54
2022-12-09T00:55:24.241Z,9.14
2022-12-09T01:00:25.934Z,9.57
2022-12-09T01:05:27.614Z,8.39
2022-12-09T01:10:29.079Z,8.89
2022-12-09T01:15:30.720Z,9.28
2022-12-09T01:20:32.680Z,9.12
2022-12-09T01:25:34.209Z,9.42
2022-12-09T01:30:35.970Z,9.00
2022-12-09T01:35:40.791Z,9.09
2022-12-09T01:40:46.487Z,8.91
2022-12-09T01:45:48.046Z,8.87
2022-12-09T01:50:57.668Z,8.73
2022-12-09T01:56:00.239Z,8.49
2022-12-09T02:01:01.884Z,9.11
2022-12-09T02:06:03.400Z,9.23
2022-12-09T02:11:27.198Z,8.86
2022-12-09T02:16:29.849Z,9.31
2022-12-09T02:21:37.654Z,8.98
2022-12-09T02:26:51.794Z,8.74
2022-12-09T02:32:32.180Z,8.90
2022-12-09T02:37:40.555Z,8.90
2022-12-09T02:42:42.066Z,8.66
2022-12-09T02:47:46.701Z,8.57
2022-12-09T02:52:51.183Z,8.61
2022-12-09T02:57:53.769Z,8.27
2022-12-09T03:02:57.895Z,8.80
2022-12-09T03:08:26.427Z,8.85
2022-12-09T03:13:51.941Z,8.98
2022-12-09T03:19:28.118Z,8.70
2022-12-09T03:24:39.579Z,8.46
2022-12-09T03:29:42.291Z,8.25
2022-12-09T03:34:44.856Z,8.64
2022-12-09T03:39:46.343Z,8.61
2022-12-09T03:44:53.596Z,8.51
2022-12-09T03:49:55.326Z,8.84
2022-12-09T03:54:59.280Z,8.48
2022-12-09T04:00:01.674Z,8.57
2022-12-09T04:05:04.110Z,8.75
2022-12-09T04:10:06.927Z,8.48
2022-12-09T04:15:10.346Z,8.61
2022-12-09T04:20:12.612Z,7.99
2022-12-09T04:25:14.615Z,8.63
2022-12-09T04:30:16.417Z,8.58
2022-12-09T04:35:17.999Z,8.55
2022-12-09T04:40:23.735Z,8.51
2022-12-09T04:45:25.878Z,8.72
2022-12-09T04:50:27.356Z,8.58
2022-12-09T04:55:28.803Z,8.30
2022-12-09T05:00:30.695Z,8.37
2022-12-09T05:05:32.255Z,8.32
2022-12-09T05:10:34.585Z,7.95
2022-12-09T05:15:38.284Z,8.36
2022-12-09T05:20:40.192Z,8.62
2022-12-09T05:25:41.749Z,8.28
2022-12-09T05:30:43.393Z,8.28
2022-12-09T05:35:52.263Z,8.41
2022-12-09T05:40:54.922Z,8.11
2022-12-09T05:45:56.838Z,7.92
2022-12-09T05:51:37.435Z,7.96
2022-12-09T05:56:44.452Z,8.24
2022-12-09T06:01:49.373Z,8.04
2022-12-09T06:06:51.070Z,7.83
2022-12-09T06:11:53.087Z,7.68
2022-12-09T06:16:54.640Z,7.83
2022-12-09T06:21:56.620Z,8.11
2022-12-09T06:26:58.458Z,7.63
2022-12-09T06:32:00.288Z,7.83
2022-12-09T06:37:02.146Z,8.07
2022-12-09T06:42:04.382Z,6.89
2022-12-09T06:47:07.055Z,7.74
2022-12-09T06:52:08.568Z,7.84
2022-12-09T06:57:10.258Z,7.02
2022-12-09T07:02:11.927Z,8.10
2022-12-09T07:07:15.141Z,8.04
2022-12-09T07:12:17.107Z,7.83
2022-12-09T07:17:19.998Z,8.28
2022-12-09T07:22:21.593Z,7.57
2022-12-09T07:27:23.391Z,8.19
2022-12-09T07:32:25.062Z,7.72
2022-12-09T07:37:27.030Z,8.28
2022-12-09T07:42:28.892Z,8.09
2022-12-09T07:47:30.505Z,7.88
2022-12-09T07:52:32.467Z,8.15
2022-12-09T07:57:34.166Z,8.03
2022-12-09T08:02:36.052Z,8.13
2022-12-09T08:07:43.845Z,8.32
2022-12-09T08:12:46.157Z,8.41
2022-12-09T08:17:47.976Z,8.41
2022-12-09T08:22:49.965Z,8.54
2022-12-09T08:27:51.974Z,8.73
2022-12-09T08:32:53.971Z,8.47
2022-12-09T08:37:55.903Z,8.63
2022-12-09T08:42:57.657Z,8.56
2022-12-09T08:47:59.674Z,8.31
2022-12-09T08:53:01.699Z,7.84
2022-12-09T08:58:03.620Z,8.02
2022-12-09T09:03:05.729Z,8.58
2022-12-09T09:08:07.453Z,8.71
2022-12-09T09:13:09.095Z,8.77
2022-12-09T09:18:10.959Z,8.68
2022-12-09T09:23:13.253Z,8.14
2022-12-09T09:28:14.997Z,8.74
2022-12-09T09:33:17.803Z,8.13
2022-12-09T09:38:19.423Z,9.00
2022-12-09T09:43:23.094Z,9.24
2022-12-09T09:48:27.535Z,9.37
2022-12-09T09:53:30.901Z,8.35
2022-12-09T09:58:45.813Z,8.57
2022-12-09T10:04:06.650Z,8.20
2022-12-09T10:09:13.731Z,9.04
2022-12-09T10:14:37.353Z,9.28
2022-12-09T10:19:44.507Z,9.29
2022-12-09T10:24:51.012Z,9.16
2022-12-09T10:29:59.502Z,9.58
2022-12-09T10:35:02.423Z,9.56
2022-12-09T10:40:10.811Z,9.50
2022-12-09T10:45:13.547Z,9.85
2022-12-09T10:50:34.192Z,9.52
2022-12-09T10:55:39.090Z,9.79
2022-12-09T11:00:40.994Z,9.95
2022-12-09T11:05:43.058Z,10.07
2022-12-09T11:10:48.270Z,10.33
2022-12-09T11:15:51.383Z,9.81
2022-12-09T11:21:01.105Z,9.89
2022-12-09T11:26:07.685Z,10.31
2022-12-09T11:31:35.757Z,10.45
2022-12-09T11:36:40.645Z,10.55
2022-12-09T11:42:05.551Z,9.80
2022-12-09T11:47:14.331Z,10.13
2022-12-09T11:52:18.367Z,9.68
2022-12-09T11:58:02.076Z,9.71
2022-12-09T12:03:06.601Z,9.19
2022-12-09T12:08:22.039Z,9.17
2022-12-09T12:13:27.712Z,9.08
2022-12-09T12:18:30.476Z,9.57
2022-12-09T12:23:50.663Z,9.69
2022-12-09T12:29:06.890Z,9.99
2022-12-09T12:34:26.003Z,10.05
2022-12-09T12:39:41.117Z,10.32
2022-12-09T12:45:18.350Z,10.32
2022-12-09T12:50:57.614Z,10.51
2022-12-09T12:56:00.348Z,10.56
2022-12-09T13:01:29.873Z,10.56
2022-12-09T13:06:43.822Z,10.61
2022-12-09T13:12:10.030Z,10.20
2022-12-09T13:17:12.926Z,10.70
2022-12-09T13:23:00.412Z,11.04
2022-12-09T13:28:35.818Z,10.63
2022-12-09T13:33:47.473Z,10.39
2022-12-09T13:38:49.022Z,10.43
2022-12-09T13:43:50.470Z,9.89
2022-12-09T13:48:52.646Z,10.26
2022-12-09T13:53:56.690Z,9.92
2022-12-09T13:59:24.690Z,9.85
2022-12-09T14:04:36.189Z,10.20
2022-12-09T14:09:47.539Z,9.85
2022-12-09T14:14:50.579Z,9.89
2022-12-09T14:19:54.695Z,10.07
2022-12-09T14:24:57.121Z,10.08
2022-12-09T14:29:59.403Z,9.96
2022-12-09T14:35:24.061Z,9.94
2022-12-09T14:40:48.232Z,9.57
2022-12-09T14:45:53.438Z,9.22
2022-12-09T14:51:18.737Z,9.76
2022-12-09T14:56:21.041Z,8.87
2022-12-09T15:01:22.503Z,9.57
2022-12-09T15:06:27.162Z,9.81
2022-12-09T15:11:31.477Z,9.95
2022-12-09T15:16:33.019Z,9.86
2022-12-09T15:21:34.511Z,9.75
2022-12-09T15:26:35.978Z,9.71
2022-12-09T15:31:46.951Z,9.58
2022-12-09T15:36:54.265Z,9.33
2022-12-09T15:42:08.065Z,9.41
2022-12-09T15:47:22.071Z,9.20
2022-12-09T15:52:25.369Z,8.99
2022-12-09T15:57:26.896Z,9.00
2022-12-09T16:02:29.877Z,8.93
2022-12-09T16:07:34.249Z,9.13
2022-12-09T16:12:36.380Z,9.01
2022-12-09T16:17:51.488Z,8.64
2022-12-09T16:22:52.935Z,8.46
2022-12-09T16:27:58.899Z,8.56
2022-12-09T16:33:01.436Z,7.98
2022-12-09T16:38:09.292Z,8.48
2022-12-09T16:43:16.754Z,7.90
2022-12-09T16:48:19.026Z,8.00
2022-12-09T16:53:25.239Z,8.05
2022-12-09T16:58:30.710Z,8.04
2022-12-09T17:03:35.364Z,7.80
2022-12-09T17:08:37.872Z,7.72
2022-12-09T17:13:39.496Z,7.37
2022-12-09T17:18:40.957Z,7.66
2022-12-09T17:23:42.480Z,6.94
2022-12-09T17:28:44.065Z,7.46
2022-12-09T17:33:45.618Z,7.70
2022-12-09T17:38:47.116Z,7.46
2022-12-09T17:43:48.576Z,7.66
2022-12-09T17:48:50.030Z,7.70
2022-12-09T17:53:51.483Z,8.02
2022-12-09T17:59:07.575Z,7.41
2022-12-09T18:04:10.175Z,7.71
2022-12-09T18:09:16.058Z,7.62
2022-12-09T18:14:17.567Z,7.78
2022-12-09T18:19:20.262Z,8.04
2022-12-09T18:24:21.881Z,7.82
2022-12-09T18:29:24.183Z,7.59
2022-12-09T18:34:26.988Z,7.60
2022-12-09T18:39:28.464Z,7.17
2022-12-09T18:44:29.915Z,6.88
2022-12-09T18:49:31.988Z,6.83
2022-12-09T18:54:33.544Z,7.09
2022-12-09T18:59:35.071Z,7.21
2022-12-09T19:04:36.580Z,6.89
2022-12-09T19:09:39.936Z,6.73
2022-12-09T19:14:41.402Z,7.06
2022-12-09T19:19:45.145Z,6.77
2022-12-09T19:24:46.671Z,6.94
2022-12-09T19:29:48.131Z,7.16
2022-12-09T19:34:49.604Z,7.22
2022-12-09T19:39:51.066Z,7.42
2022-12-09T19:45:01.438Z,7.36
2022-12-09T19:50:04.005Z,7.03
2022-12-09T19:55:05.622Z,7.53
2022-12-09T20:00:07.917Z,7.18
2022-12-09T20:05:09.625Z,7.51
2022-12-09T20:10:11.213Z,7.80
2022-12-09T20:15:12.749Z,7.73
2022-12-09T20:20:14.210Z,7.64
2022-12-09T20:25:15.969Z,7.49
2022-12-09T20:30:17.845Z,7.25
2022-12-09T20:35:19.363Z,7.54
2022-12-09T20:40:20.835Z,7.40
2022-12-09T20:45:22.311Z,7.61
2022-12-09T20:50:23.767Z,7.42
2022-12-09T20:55:25.517Z,7.78
2022-12-09T21:00:26.989Z,7.62
2022-12-09T21:05:28.451Z,7.17
2022-12-09T21:10:29.924Z,6.91
2022-12-09T21:15:31.397Z,7.61
2022-12-09T21:20:32.901Z,7.38
2022-12-09T21:25:34.392Z,7.32
2022-12-09T21:30:37.911Z,7.56
2022-12-09T21:35:47.527Z,8.00
2022-12-09T21:40:48.983Z,7.38
2022-12-09T21:45:50.509Z,7.76
2022-12-09T21:50:58.814Z,7.75
2022-12-09T21:56:04.278Z,7.63
2022-12-09T22:01:10.449Z,7.78
2022-12-09T22:06:12.375Z,7.84
2022-12-09T22:11:20.978Z,7.40
2022-12-09T22:16:23.652Z,7.76
2022-12-09T22:21:27.462Z,7.87
2022-12-09T22:26:29.713Z,7.35
2022-12-09T22:31:33.432Z,7.78
2022-12-09T22:36:36.875Z,7.28
2022-12-09T22:41:38.466Z,7.06
2022-12-09T22:46:40.081Z,7.10
2022-12-09T22:51:41.665Z,7.31
2022-12-09T22:56:43.237Z,7.00
2022-12-09T23:01:46.695Z,7.24
2022-12-09T23:06:48.459Z,7.14
2022-12-09T23:11:50.420Z,7.26
2022-12-09T23:16:51.920Z,6.81
2022-12-09T23:21:53.394Z,7.09
2022-12-09T23:26:55.677Z,6.83
2022-12-09T23:31:57.161Z,7.05
2022-12-09T23:36:58.640Z,7.18
2022-12-09T23:42:00.129Z,7.34
2022-12-09T23:47:01.668Z,6.92
2022-12-09T23:52:03.221Z,6.28
2022-12-09T23:57:04.679Z,6.96
